createdAt,value
2022-08-31T00:00:11.023Z,20.50
2022-08-31T00:02:56.557Z,20.60
2022-08-31T00:05:24.982Z,20.60
2022-08-31T00:07:53.350Z,20.60
2022-08-31T00:10:32.709Z,20.70
2022-08-31T00:13:07.042Z,20.60
2022-08-31T00:15:35.870Z,20.60
2022-08-31T00:18:04.193Z,20.60
2022-08-31T00:20:33.521Z,20.70
2022-08-31T00:23:03.603Z,20.70
2022-08-31T00:25:31.562Z,20.70
2022-08-31T00:27:59.293Z,20.80
2022-08-31T00:30:28.587Z,20.80
2022-08-31T00:32:58.298Z,20.80
2022-08-31T00:35:27.154Z,20.80
2022-08-31T00:37:55.196Z,20.80
2022-08-31T00:40:23.938Z,20.70
2022-08-31T00:42:52.549Z,20.70
2022-08-31T00:45:20.955Z,20.70
2022-08-31T00:47:50.468Z,20.80
2022-08-31T00:50:19.719Z,20.80
2022-08-31T00:52:51.933Z,20.70
2022-08-31T00:55:24.228Z,20.60
2022-08-31T00:57:55.007Z,20.60
2022-08-31T01:00:27.137Z,20.70
2022-08-31T01:02:57.595Z,20.70
2022-08-31T01:05:26.052Z,20.80
2022-08-31T01:07:54.418Z,20.70
2022-08-31T01:10:25.846Z,20.80
2022-08-31T01:12:56.587Z,20.70
2022-08-31T01:15:25.878Z,20.70
2022-08-31T01:17:56.742Z,20.70
2022-08-31T01:20:30.012Z,20.60
2022-08-31T01:23:09.184Z,20.50
2022-08-31T01:25:38.560Z,20.60
2022-08-31T01:28:08.342Z,20.70
2022-08-31T01:30:37.518Z,20.50
2022-08-31T01:33:05.633Z,20.30
2022-08-31T01:35:34.765Z,20.20
2022-08-31T01:38:02.912Z,20.30
2022-08-31T01:40:35.732Z,20.30
2022-08-31T01:43:04.097Z,20.20
2022-08-31T01:45:31.871Z,20.10
2022-08-31T01:48:00.188Z,20.10
2022-08-31T01:50:28.390Z,20.10
2022-08-31T01:52:56.163Z,20.30
2022-08-31T01:55:23.957Z,20.40
2022-08-31T01:57:53.061Z,20.50
2022-08-31T02:00:21.184Z,20.50
2022-08-31T02:02:49.018Z,20.30
2022-08-31T02:05:16.854Z,20.20
2022-08-31T02:07:44.627Z,20.10
2022-08-31T02:10:12.725Z,20.00
2022-08-31T02:12:40.512Z,20.10
2022-08-31T02:15:10.403Z,20.10
2022-08-31T02:17:38.190Z,20.00
2022-08-31T02:20:08.060Z,20.00
2022-08-31T02:22:36.139Z,19.80
2022-08-31T02:25:04.140Z,19.80
2022-08-31T02:27:32.175Z,19.80
2022-08-31T02:29:59.930Z,19.80
2022-08-31T02:32:28.991Z,19.90
2022-08-31T02:34:56.744Z,19.90
2022-08-31T02:37:24.494Z,19.70
2022-08-31T02:39:52.393Z,19.50
2022-08-31T02:42:20.155Z,19.60
2022-08-31T02:44:47.911Z,19.50
2022-08-31T02:47:15.713Z,19.60
2022-08-31T02:49:44.812Z,19.50
2022-08-31T02:52:12.566Z,19.60
2022-08-31T02:54:40.294Z,19.80
2022-08-31T02:57:08.139Z,19.90
2022-08-31T02:59:35.990Z,19.70
2022-08-31T03:02:03.895Z,19.70
2022-08-31T03:04:31.767Z,19.80
2022-08-31T03:07:00.850Z,19.80
2022-08-31T03:09:28.709Z,19.80
2022-08-31T03:11:56.480Z,19.70
2022-08-31T03:14:24.227Z,19.60
2022-08-31T03:16:52.064Z,19.70
2022-08-31T03:19:20.735Z,19.80
2022-08-31T03:21:48.564Z,19.60
2022-08-31T03:24:27.528Z,19.50
2022-08-31T03:26:55.463Z,19.50
2022-08-31T03:29:23.200Z,19.50
2022-08-31T03:31:50.938Z,19.50
2022-08-31T03:34:18.759Z,19.50
2022-08-31T03:36:46.516Z,19.50
2022-08-31T03:39:14.311Z,19.60
2022-08-31T03:41:43.405Z,19.70
2022-08-31T03:44:11.151Z,19.80
2022-08-31T03:46:39.673Z,19.80
2022-08-31T03:49:07.659Z,19.90
2022-08-31T03:51:35.459Z,19.80
2022-08-31T03:54:03.209Z,19.70
2022-08-31T03:56:30.952Z,19.70
2022-08-31T03:59:00.032Z,19.60
2022-08-31T04:01:27.841Z,19.60
2022-08-31T04:03:55.615Z,19.70
2022-08-31T04:06:23.571Z,19.70
2022-08-31T04:08:51.381Z,19.70
2022-08-31T04:11:44.316Z,19.70
2022-08-31T04:14:15.386Z,19.70
2022-08-31T04:16:43.967Z,19.70
2022-08-31T04:19:15.909Z,19.60
2022-08-31T04:21:44.997Z,19.70
2022-08-31T04:24:12.982Z,19.80
2022-08-31T04:26:41.555Z,19.60
2022-08-31T04:29:13.018Z,19.70
2022-08-31T04:31:42.612Z,19.80
2022-08-31T04:34:10.462Z,19.80
2022-08-31T04:36:38.560Z,19.80
2022-08-31T04:39:07.977Z,19.60
2022-08-31T04:41:39.631Z,19.60
2022-08-31T04:44:07.911Z,19.50
2022-08-31T04:46:38.621Z,19.50
2022-08-31T04:49:09.294Z,19.40
2022-08-31T04:51:39.249Z,19.40
2022-08-31T04:54:09.847Z,19.20
2022-08-31T04:56:41.051Z,19.20
2022-08-31T04:59:10.895Z,19.20
2022-08-31T05:01:43.666Z,19.10
2022-08-31T05:04:15.160Z,19.20
2022-08-31T05:06:44.815Z,19.10
2022-08-31T05:09:14.614Z,19.10
2022-08-31T05:11:42.513Z,18.90
2022-08-31T05:14:11.099Z,18.90
2022-08-31T05:16:40.162Z,18.80
2022-08-31T05:19:08.330Z,19.10
2022-08-31T05:21:39.342Z,19.20
2022-08-31T05:24:09.729Z,19.20
2022-08-31T05:26:42.282Z,19.10
2022-08-31T05:29:14.145Z,19.00
2022-08-31T05:31:43.433Z,19.10
2022-08-31T05:34:12.784Z,19.20
2022-08-31T05:36:42.948Z,19.10
2022-08-31T05:39:11.880Z,19.20
2022-08-31T05:41:40.625Z,19.20
2022-08-31T05:44:08.690Z,19.10
2022-08-31T05:46:37.015Z,19.00
2022-08-31T05:49:06.346Z,18.90
2022-08-31T05:51:38.410Z,19.20
2022-08-31T05:54:10.667Z,19.00
2022-08-31T05:56:41.027Z,19.10
2022-08-31T05:59:10.800Z,19.10
2022-08-31T06:01:40.414Z,19.20
2022-08-31T06:04:10.386Z,19.20
2022-08-31T06:06:38.839Z,19.00
2022-08-31T06:09:09.098Z,19.00
2022-08-31T06:11:42.131Z,19.20
2022-08-31T06:14:12.076Z,19.30
2022-08-31T06:16:40.654Z,19.40
2022-08-31T06:19:08.498Z,19.30
2022-08-31T06:21:39.542Z,19.30
2022-08-31T06:24:19.721Z,19.20
2022-08-31T06:26:56.757Z,19.10
2022-08-31T06:29:26.034Z,19.20
2022-08-31T06:31:53.971Z,19.00
2022-08-31T06:34:23.399Z,19.10
2022-08-31T06:36:51.295Z,19.20
2022-08-31T06:39:20.457Z,18.80
2022-08-31T06:41:48.867Z,18.60
2022-08-31T06:44:16.911Z,18.50
2022-08-31T06:46:47.531Z,18.70
2022-08-31T06:49:16.699Z,18.90
2022-08-31T06:51:45.030Z,19.00
2022-08-31T06:54:29.571Z,19.00
2022-08-31T06:57:02.632Z,19.00
2022-08-31T06:59:30.462Z,19.30
2022-08-31T07:01:59.159Z,19.30
2022-08-31T07:04:27.522Z,19.40
2022-08-31T07:06:55.361Z,19.40
2022-08-31T07:09:23.704Z,19.60
2022-08-31T07:11:53.497Z,19.60
2022-08-31T07:14:25.027Z,19.90
2022-08-31T07:16:54.729Z,20.00
2022-08-31T07:19:23.752Z,20.00
2022-08-31T07:21:53.741Z,19.70
2022-08-31T07:24:25.688Z,19.50
2022-08-31T07:26:57.945Z,19.40
2022-08-31T07:29:30.078Z,19.60
2022-08-31T07:31:59.314Z,19.80
2022-08-31T07:34:29.300Z,20.00
2022-08-31T07:37:16.704Z,20.00
2022-08-31T07:40:07.097Z,20.40
2022-08-31T07:42:38.429Z,20.50
2022-08-31T07:45:12.858Z,20.60
2022-08-31T07:47:47.023Z,20.60
2022-08-31T07:50:15.351Z,20.60
2022-08-31T07:52:47.033Z,20.60
2022-08-31T07:55:16.906Z,20.70
2022-08-31T07:57:45.088Z,20.60
2022-08-31T08:00:18.184Z,20.90
2022-08-31T08:02:52.917Z,21.00
2022-08-31T08:05:26.710Z,21.00
2022-08-31T08:07:58.316Z,20.90
2022-08-31T08:10:27.570Z,21.00
2022-08-31T08:13:04.817Z,21.30
2022-08-31T08:15:37.224Z,21.40
2022-08-31T08:18:06.987Z,21.50
2022-08-31T08:20:38.554Z,21.40
2022-08-31T08:23:11.415Z,21.20
2022-08-31T08:25:43.347Z,20.90
2022-08-31T08:28:36.051Z,21.20
2022-08-31T08:31:07.336Z,21.30
2022-08-31T08:33:37.631Z,21.50
2022-08-31T08:36:08.571Z,21.50
2022-08-31T08:38:39.297Z,21.60
2022-08-31T08:41:12.202Z,21.70
2022-08-31T08:43:43.729Z,21.90
2022-08-31T08:46:33.890Z,21.80
2022-08-31T08:49:10.497Z,21.70
2022-08-31T08:51:40.122Z,22.10
2022-08-31T08:54:12.304Z,22.40
2022-08-31T08:56:49.054Z,22.30
2022-08-31T08:59:19.940Z,22.30
2022-08-31T09:02:01.958Z,22.50
2022-08-31T09:04:59.768Z,22.50
2022-08-31T09:07:44.341Z,22.30
2022-08-31T09:10:20.200Z,22.30
2022-08-31T09:12:58.011Z,22.00
2022-08-31T09:15:40.710Z,21.70
2022-08-31T09:18:26.115Z,21.80
2022-08-31T09:21:13.502Z,21.90
2022-08-31T09:23:49.188Z,22.10
2022-08-31T09:26:18.195Z,22.30
2022-08-31T09:28:48.658Z,22.40
2022-08-31T09:31:34.692Z,22.50
2022-08-31T09:34:05.295Z,22.80
2022-08-31T09:36:37.866Z,23.00
2022-08-31T09:39:16.439Z,22.80
2022-08-31T09:41:45.803Z,23.30
2022-08-31T09:44:25.150Z,23.40
2022-08-31T09:46:56.507Z,23.20
2022-08-31T09:49:28.688Z,23.40
2022-08-31T09:52:18.660Z,23.70
2022-08-31T09:55:13.280Z,23.50
2022-08-31T09:57:54.051Z,23.40
2022-08-31T10:00:35.182Z,23.40
2022-08-31T10:03:13.500Z,23.30
2022-08-31T10:05:44.514Z,23.30
2022-08-31T10:08:34.339Z,23.20
2022-08-31T10:11:10.323Z,23.40
2022-08-31T10:13:41.024Z,23.50
2022-08-31T10:16:17.099Z,23.30
2022-08-31T10:19:00.906Z,23.50
2022-08-31T10:21:40.537Z,23.50
2022-08-31T10:24:20.691Z,23.40
2022-08-31T10:26:53.421Z,23.70
2022-08-31T10:29:36.886Z,23.70
2022-08-31T10:32:13.019Z,23.90
2022-08-31T10:34:59.836Z,24.10
2022-08-31T10:37:37.752Z,24.00
2022-08-31T10:40:09.895Z,23.70
2022-08-31T10:42:42.281Z,24.10
2022-08-31T10:45:18.435Z,24.20
2022-08-31T10:47:49.949Z,24.00
2022-08-31T10:50:26.851Z,24.00
2022-08-31T10:53:05.817Z,24.50
2022-08-31T10:55:39.369Z,24.50
2022-08-31T10:58:16.452Z,24.50
2022-08-31T11:00:52.178Z,24.70
2022-08-31T11:03:38.611Z,24.70
2022-08-31T11:06:15.010Z,24.70
2022-08-31T11:08:52.554Z,25.10
2022-08-31T11:11:30.932Z,25.00
2022-08-31T11:14:18.220Z,25.10
2022-08-31T11:17:03.572Z,25.20
2022-08-31T11:19:50.628Z,25.20
2022-08-31T11:22:37.471Z,25.40
2022-08-31T11:25:58.314Z,25.20
2022-08-31T11:28:34.232Z,25.60
2022-08-31T11:31:05.047Z,26.00
2022-08-31T11:33:33.296Z,25.90
2022-08-31T11:36:07.655Z,25.90
2022-08-31T11:38:52.223Z,25.90
2022-08-31T11:41:41.205Z,25.80
2022-08-31T11:44:10.285Z,26.00
2022-08-31T11:47:06.767Z,25.80
2022-08-31T11:49:38.777Z,25.80
2022-08-31T11:52:14.525Z,25.40
2022-08-31T11:54:59.843Z,25.00
2022-08-31T11:57:37.020Z,24.60
2022-08-31T12:00:20.439Z,24.90
2022-08-31T12:03:04.401Z,24.80
2022-08-31T12:05:56.311Z,24.80
2022-08-31T12:08:28.456Z,24.80
2022-08-31T12:11:03.474Z,24.50
2022-08-31T12:13:45.810Z,24.50
2022-08-31T12:16:37.825Z,24.50
2022-08-31T12:19:49.150Z,24.40
2022-08-31T12:23:31.113Z,24.40
2022-08-31T12:26:26.407Z,24.30
2022-08-31T12:29:17.114Z,24.50
2022-08-31T12:32:06.448Z,24.70
2022-08-31T12:34:41.845Z,25.00
2022-08-31T12:37:34.858Z,25.40
2022-08-31T12:40:16.893Z,25.70
2022-08-31T12:42:54.631Z,25.00
2022-08-31T12:45:44.485Z,25.10
2022-08-31T12:48:24.145Z,25.50
2022-08-31T12:51:00.693Z,25.50
2022-08-31T12:53:55.065Z,25.40
2022-08-31T12:56:32.430Z,25.40
2022-08-31T12:59:20.329Z,25.30
2022-08-31T13:01:51.586Z,25.40
2022-08-31T13:04:21.939Z,25.60
2022-08-31T13:06:49.768Z,25.60
2022-08-31T13:09:28.833Z,25.60
2022-08-31T13:11:58.434Z,25.70
2022-08-31T13:14:28.569Z,25.70
2022-08-31T13:17:06.103Z,25.60
2022-08-31T13:19:36.165Z,25.50
2022-08-31T13:22:06.630Z,25.60
2022-08-31T13:24:36.466Z,25.70
2022-08-31T13:27:06.811Z,25.80
2022-08-31T13:29:41.179Z,25.90
2022-08-31T13:32:10.625Z,26.00
2022-08-31T13:34:42.113Z,26.10
2022-08-31T13:37:20.996Z,25.90
2022-08-31T13:39:48.876Z,26.00
2022-08-31T13:42:33.903Z,26.00
2022-08-31T13:45:04.298Z,26.30
2022-08-31T13:47:45.245Z,26.50
2022-08-31T13:50:25.936Z,26.20
2022-08-31T13:53:22.904Z,26.30
2022-08-31T13:55:47.481Z,26.40
2022-08-31T13:58:28.235Z,26.20
2022-08-31T14:01:21.994Z,26.40
2022-08-31T14:03:58.152Z,26.70
2022-08-31T14:06:29.174Z,26.80
2022-08-31T14:09:03.367Z,26.80
2022-08-31T14:11:33.740Z,26.90
2022-08-31T14:14:08.266Z,27.10
2022-08-31T14:16:38.734Z,27.20
2022-08-31T14:19:10.725Z,27.20
2022-08-31T14:21:43.435Z,27.10
2022-08-31T14:24:12.673Z,27.10
2022-08-31T14:26:42.793Z,27.50
2022-08-31T14:29:13.559Z,27.50
2022-08-31T14:31:46.810Z,27.70
2022-08-31T14:34:22.978Z,27.40
2022-08-31T14:36:54.081Z,27.30
2022-08-31T14:39:24.309Z,27.10
2022-08-31T14:41:54.060Z,27.30
2022-08-31T14:44:25.415Z,27.40
2022-08-31T14:46:53.814Z,27.60
2022-08-31T14:49:23.172Z,27.90
2022-08-31T14:51:51.112Z,27.90
2022-08-31T14:54:19.075Z,28.10
2022-08-31T14:56:50.240Z,28.00
2022-08-31T14:59:20.626Z,27.50
2022-08-31T15:01:50.578Z,27.40
2022-08-31T15:04:20.661Z,27.40
2022-08-31T15:06:54.831Z,27.30
2022-08-31T15:09:22.951Z,26.90
2022-08-31T15:11:51.313Z,26.80
2022-08-31T15:14:19.442Z,26.70
2022-08-31T15:16:50.734Z,26.70
2022-08-31T15:19:18.961Z,26.40
2022-08-31T15:21:52.739Z,26.30
2022-08-31T15:24:28.479Z,26.30
2022-08-31T15:26:59.563Z,26.10
2022-08-31T15:29:30.152Z,26.00
2022-08-31T15:31:59.652Z,26.10
2022-08-31T15:34:30.940Z,26.20
2022-08-31T15:37:02.142Z,26.20
2022-08-31T15:39:34.945Z,26.30
2022-08-31T15:42:09.058Z,26.30
2022-08-31T15:44:37.123Z,26.40
2022-08-31T15:47:23.228Z,26.50
2022-08-31T15:49:51.066Z,26.30
2022-08-31T15:52:20.385Z,25.90
2022-08-31T15:54:50.479Z,26.10
2022-08-31T15:57:21.053Z,26.10
2022-08-31T15:59:50.061Z,25.90
2022-08-31T16:02:20.268Z,26.00
2022-08-31T16:04:51.372Z,26.10
2022-08-31T16:07:22.029Z,26.40
2022-08-31T16:09:51.237Z,26.50
2022-08-31T16:12:20.806Z,26.10
2022-08-31T16:14:51.661Z,25.70
2022-08-31T16:17:20.172Z,25.70
2022-08-31T16:19:48.421Z,25.60
2022-08-31T16:22:17.125Z,25.60
2022-08-31T16:24:49.040Z,25.60
2022-08-31T16:27:19.817Z,25.50
2022-08-31T16:29:50.962Z,25.40
2022-08-31T16:32:19.025Z,25.30
2022-08-31T16:34:47.119Z,25.10
2022-08-31T16:37:15.087Z,25.00
2022-08-31T16:39:47.023Z,25.00
2022-08-31T16:42:15.895Z,25.20
2022-08-31T16:44:47.939Z,25.10
2022-08-31T16:47:17.673Z,25.00
2022-08-31T16:49:44.837Z,24.90
2022-08-31T16:52:15.245Z,24.70
2022-08-31T16:54:46.093Z,24.20
2022-08-31T16:57:16.758Z,24.20
2022-08-31T16:59:46.589Z,24.20
2022-08-31T17:02:16.187Z,24.20
2022-08-31T17:04:53.905Z,24.40
2022-08-31T17:07:23.951Z,24.40
2022-08-31T17:09:55.955Z,24.50
2022-08-31T17:12:26.223Z,24.40
2022-08-31T17:14:56.131Z,24.10
2022-08-31T17:17:25.547Z,24.10
2022-08-31T17:19:54.193Z,23.90
2022-08-31T17:22:31.692Z,23.80
2022-08-31T17:25:03.026Z,23.70
2022-08-31T17:27:35.651Z,23.60
2022-08-31T17:30:07.415Z,23.60
2022-08-31T17:32:44.692Z,23.40
2022-08-31T17:35:17.540Z,23.30
2022-08-31T17:37:45.870Z,23.20
2022-08-31T17:40:14.485Z,23.20
2022-08-31T17:42:42.592Z,23.20
2022-08-31T17:45:13.049Z,23.30
2022-08-31T17:47:41.396Z,23.20
2022-08-31T17:50:10.200Z,23.20
2022-08-31T17:52:38.105Z,23.00
2022-08-31T17:55:07.508Z,22.90
2022-08-31T17:57:35.476Z,23.00
2022-08-31T18:00:05.705Z,22.90
2022-08-31T18:02:35.259Z,22.70
2022-08-31T18:05:09.563Z,22.70
2022-08-31T18:07:40.786Z,22.60
2022-08-31T18:10:10.079Z,22.60
2022-08-31T18:12:41.206Z,22.50
2022-08-31T18:15:10.589Z,22.60
2022-08-31T18:17:40.097Z,22.80
2022-08-31T18:20:09.174Z,22.70
2022-08-31T18:22:37.096Z,22.70
2022-08-31T18:25:05.569Z,22.80
2022-08-31T18:27:33.486Z,22.90
2022-08-31T18:30:01.615Z,23.00
2022-08-31T18:32:32.572Z,22.90
2022-08-31T18:35:01.877Z,22.80
2022-08-31T18:37:32.049Z,22.90
2022-08-31T18:40:17.976Z,22.90
2022-08-31T18:43:03.604Z,22.80
2022-08-31T18:45:31.505Z,22.80
2022-08-31T18:50:51.127Z,22.70
2022-08-31T18:53:29.115Z,22.60
2022-08-31T18:55:59.123Z,22.50
2022-08-31T18:58:27.587Z,22.60
2022-08-31T19:00:57.875Z,22.50
2022-08-31T19:03:27.660Z,22.60
2022-08-31T19:05:57.839Z,22.30
2022-08-31T19:08:26.457Z,22.10
2022-08-31T19:10:56.596Z,21.80
2022-08-31T19:13:26.311Z,21.50
2022-08-31T19:15:57.946Z,21.10
2022-08-31T19:18:29.738Z,20.90
2022-08-31T19:20:59.288Z,20.80
2022-08-31T19:23:28.269Z,20.80
2022-08-31T19:25:56.460Z,20.70
2022-08-31T19:28:24.632Z,20.70
2022-08-31T19:30:52.832Z,20.80
2022-08-31T19:33:25.207Z,20.90
2022-08-31T19:36:03.590Z,20.80
2022-08-31T19:38:33.141Z,21.00
2022-08-31T19:41:01.626Z,21.00
2022-08-31T19:43:53.664Z,21.00
2022-08-31T19:46:21.488Z,20.90
2022-08-31T19:48:50.811Z,20.90
2022-08-31T19:51:23.316Z,21.00
2022-08-31T19:53:52.347Z,21.00
2022-08-31T19:56:23.544Z,20.80
2022-08-31T19:58:56.692Z,20.70
2022-08-31T20:01:34.186Z,20.80
2022-08-31T20:04:04.854Z,20.70
2022-08-31T20:06:34.674Z,20.60
2022-08-31T20:09:02.763Z,20.40
2022-08-31T20:11:32.148Z,20.40
2022-08-31T20:14:01.394Z,20.30
2022-08-31T20:16:34.726Z,20.00
2022-08-31T20:19:04.979Z,19.90
2022-08-31T20:21:35.652Z,19.80
2022-08-31T20:24:06.111Z,19.80
2022-08-31T20:26:38.289Z,19.60
2022-08-31T20:29:18.162Z,19.70
2022-08-31T20:31:48.585Z,19.70
2022-08-31T20:34:19.113Z,19.80
2022-08-31T20:37:00.461Z,19.80
2022-08-31T20:39:30.883Z,19.80
2022-08-31T20:42:00.260Z,19.70
2022-08-31T20:44:30.605Z,19.50
2022-08-31T20:47:17.481Z,19.40
2022-08-31T20:49:48.181Z,19.30
2022-08-31T20:52:18.435Z,19.30
2022-08-31T20:54:46.515Z,19.30
2022-08-31T20:57:14.932Z,19.20
2022-08-31T20:59:43.029Z,19.10
2022-08-31T21:02:12.214Z,18.80
2022-08-31T21:04:45.001Z,18.30
2022-08-31T21:07:15.083Z,18.00
2022-08-31T21:09:49.619Z,17.60
2022-08-31T21:12:18.507Z,17.70
2022-08-31T21:14:46.929Z,17.90
2022-08-31T21:17:15.870Z,17.90
2022-08-31T21:19:45.119Z,17.90
2022-08-31T21:22:14.790Z,18.00
2022-08-31T21:24:44.150Z,18.10
2022-08-31T21:27:13.701Z,18.40
2022-08-31T21:29:43.422Z,18.30
2022-08-31T21:32:11.728Z,18.20
2022-08-31T21:34:39.790Z,17.90
2022-08-31T21:37:11.048Z,17.70
2022-08-31T21:39:39.680Z,17.60
2022-08-31T21:42:08.860Z,17.40
2022-08-31T21:44:37.415Z,17.40
2022-08-31T21:47:05.731Z,17.50
2022-08-31T21:49:34.988Z,17.40
2022-08-31T21:52:03.336Z,17.30
2022-08-31T21:54:31.224Z,17.40
2022-08-31T21:57:02.231Z,17.80
2022-08-31T21:59:34.932Z,17.90
2022-08-31T22:02:06.642Z,17.80
2022-08-31T22:04:36.093Z,17.70
2022-08-31T22:07:07.451Z,17.70
2022-08-31T22:09:36.477Z,17.70
2022-08-31T22:12:06.680Z,17.60
2022-08-31T22:14:37.757Z,17.60
2022-08-31T22:17:07.710Z,17.30
2022-08-31T22:19:38.878Z,17.10
2022-08-31T22:22:12.046Z,16.80
2022-08-31T22:24:40.750Z,16.80
2022-08-31T22:27:11.333Z,16.90
2022-08-31T22:29:41.356Z,16.90
2022-08-31T22:32:12.115Z,16.90
2022-08-31T22:34:41.026Z,17.00
2022-08-31T22:37:09.505Z,17.20
2022-08-31T22:39:37.589Z,17.40
2022-08-31T22:42:05.890Z,17.40
2022-08-31T22:44:36.400Z,17.30
2022-08-31T22:47:05.871Z,17.10
2022-08-31T22:49:33.959Z,17.10
2022-08-31T22:52:01.717Z,17.20
2022-08-31T22:54:29.468Z,17.20
2022-08-31T22:56:57.261Z,17.30
2022-08-31T22:59:27.630Z,17.20
2022-08-31T23:01:59.103Z,17.20
2022-08-31T23:04:33.299Z,17.30
2022-08-31T23:07:03.504Z,17.20
2022-08-31T23:09:33.692Z,17.00
2022-08-31T23:12:04.573Z,17.10
2022-08-31T23:14:33.439Z,17.30
2022-08-31T23:17:05.000Z,17.30
2022-08-31T23:19:37.319Z,17.20
2022-08-31T23:22:09.139Z,17.10
2022-08-31T23:24:39.706Z,17.20
2022-08-31T23:27:10.293Z,17.00
2022-08-31T23:29:40.918Z,17.10
2022-08-31T23:32:11.951Z,17.20
2022-08-31T23:34:41.940Z,17.00
2022-08-31T23:37:11.063Z,16.70
2022-08-31T23:39:43.371Z,16.50
2022-08-31T23:42:12.234Z,16.40
2022-08-31T23:44:43.378Z,16.40
2022-08-31T23:47:13.481Z,16.40
2022-08-31T23:49:43.754Z,16.20
2022-08-31T23:52:15.573Z,16.30
2022-08-31T23:54:43.321Z,16.20
2022-08-31T23:57:19.250Z,16.20
